createdAt,value
2022-11-28T00:01:35.752Z,66.40
2022-11-28T00:04:04.375Z,66.30
2022-11-28T00:06:32.328Z,67.78
2022-11-28T00:09:00.658Z,73.25
2022-11-28T00:11:28.685Z,69.20
2022-11-28T00:13:56.567Z,72.43
2022-11-28T00:16:25.002Z,60.97
2022-11-28T00:18:55.435Z,67.07
2022-11-28T00:21:23.851Z,64.07
2022-11-28T00:23:52.749Z,73.53
2022-11-28T00:26:41.192Z,75.78
2022-11-28T00:29:10.873Z,71.80
2022-11-28T00:31:43.097Z,70.00
2022-11-28T00:34:13.821Z,72.22
2022-11-28T00:36:46.185Z,71.85
2022-11-28T00:39:14.682Z,77.38
2022-11-28T00:41:42.791Z,80.47
2022-11-28T00:44:12.010Z,74.60
2022-11-28T00:46:40.024Z,72.18
2022-11-28T00:49:18.205Z,75.13
2022-11-28T00:51:47.415Z,70.20
2022-11-28T00:54:15.277Z,75.97
2022-11-28T00:56:43.331Z,72.60
2022-11-28T00:59:11.071Z,73.90
2022-11-28T01:01:43.991Z,80.63
2022-11-28T01:04:13.983Z,80.07
2022-11-28T01:06:43.969Z,73.03
2022-11-28T01:09:15.206Z,72.15
2022-11-28T01:11:43.242Z,61.40
2022-11-28T01:14:12.377Z,67.90
2022-11-28T01:16:40.436Z,73.30
2022-11-28T01:19:08.604Z,73.65
2022-11-28T01:21:36.565Z,71.95
2022-11-28T01:24:04.887Z,67.53
2022-11-28T01:26:33.070Z,65.68
2022-11-28T01:29:01.221Z,72.18
2022-11-28T01:31:29.816Z,77.13
2022-11-28T01:33:57.860Z,77.32
2022-11-28T01:36:25.934Z,70.05
2022-11-28T01:38:53.834Z,70.63
2022-11-28T01:41:23.798Z,71.57
2022-11-28T01:44:06.881Z,67.85
2022-11-28T01:46:35.853Z,67.38
2022-11-28T01:49:08.963Z,78.15
2022-11-28T01:51:36.866Z,82.75
2022-11-28T01:54:04.856Z,85.10
2022-11-28T01:57:05.058Z,90.00
2022-11-28T01:59:35.863Z,91.55
2022-11-28T02:02:05.710Z,89.57
2022-11-28T02:04:33.574Z,86.28
2022-11-28T02:07:01.434Z,89.07
2022-11-28T02:09:29.457Z,83.65
2022-11-28T02:12:34.989Z,81.03
2022-11-28T02:15:02.775Z,83.63
2022-11-28T02:17:45.519Z,90.03
2022-11-28T02:20:37.512Z,78.25
2022-11-28T02:23:14.523Z,85.70
2022-11-28T02:25:51.367Z,75.28
2022-11-28T02:28:56.432Z,73.00
2022-11-28T02:31:46.951Z,73.82
2022-11-28T02:34:41.122Z,82.97
2022-11-28T02:37:23.354Z,72.60
2022-11-28T02:40:06.994Z,77.93
2022-11-28T02:42:42.616Z,88.35
2022-11-28T02:45:35.717Z,79.93
2022-11-28T02:48:12.967Z,77.80
2022-11-28T02:50:47.703Z,73.63
2022-11-28T02:53:18.982Z,76.95
2022-11-28T02:55:47.071Z,79.00
2022-11-28T02:58:15.060Z,80.43
2022-11-28T03:00:43.962Z,82.47
2022-11-28T03:03:42.490Z,83.60
2022-11-28T03:06:13.785Z,85.50
2022-11-28T03:08:45.337Z,93.90
2022-11-28T03:11:37.232Z,91.85
2022-11-28T03:14:28.789Z,101.28
2022-11-28T03:17:08.940Z,96.40
2022-11-28T03:19:58.519Z,97.47
2022-11-28T03:22:37.232Z,91.47
2022-11-28T03:25:05.670Z,102.82
2022-11-28T03:27:49.454Z,92.75
2022-11-28T03:30:19.745Z,87.72
2022-11-28T03:32:49.214Z,109.03
2022-11-28T03:35:22.623Z,100.68
2022-11-28T03:38:32.066Z,105.30
2022-11-28T03:41:01.815Z,112.35
2022-11-28T03:43:33.074Z,102.28
2022-11-28T03:46:04.063Z,102.82
2022-11-28T03:48:35.039Z,111.45
2022-11-28T03:51:08.866Z,112.70
2022-11-28T03:53:44.218Z,107.78
2022-11-28T03:56:33.394Z,110.75
2022-11-28T03:59:25.737Z,100.90
2022-11-28T04:02:12.839Z,101.70
2022-11-28T04:04:40.801Z,98.63
2022-11-28T04:07:31.543Z,104.03
2022-11-28T04:10:20.116Z,103.70
2022-11-28T04:12:53.752Z,99.13
2022-11-28T04:15:42.367Z,107.55
2022-11-28T04:18:20.562Z,107.13
2022-11-28T04:21:10.515Z,99.15
2022-11-28T04:23:39.487Z,97.13
2022-11-28T04:26:23.496Z,90.20
2022-11-28T04:28:53.295Z,97.45
2022-11-28T04:31:22.742Z,108.18
2022-11-28T04:33:52.517Z,105.43
2022-11-28T04:36:20.696Z,104.63
2022-11-28T04:38:56.340Z,103.35
2022-11-28T04:41:35.929Z,108.78
2022-11-28T04:44:09.660Z,99.20
2022-11-28T04:46:45.113Z,109.72
2022-11-28T04:49:13.402Z,96.90
2022-11-28T04:52:09.383Z,89.75
2022-11-28T04:54:51.885Z,86.32
2022-11-28T04:57:30.022Z,81.50
2022-11-28T04:59:57.931Z,79.85
2022-11-28T05:02:25.790Z,81.35
2022-11-28T05:04:55.963Z,79.63
2022-11-28T05:07:24.721Z,60.17
2022-11-28T05:09:52.814Z,72.22
2022-11-28T05:12:20.562Z,57.90
2022-11-28T05:14:48.504Z,58.13
2022-11-28T05:17:16.358Z,60.60
2022-11-28T05:19:44.459Z,51.47
2022-11-28T05:22:12.318Z,48.05
2022-11-28T05:24:40.061Z,39.80
2022-11-28T05:27:08.057Z,36.53
2022-11-28T05:29:35.799Z,41.25
2022-11-28T05:32:04.541Z,44.65
2022-11-28T05:34:32.522Z,40.53
2022-11-28T05:37:00.455Z,37.33
2022-11-28T05:39:28.502Z,35.67
2022-11-28T05:41:59.087Z,46.85
2022-11-28T05:44:27.493Z,36.35
2022-11-28T05:46:55.601Z,29.67
2022-11-28T05:49:24.033Z,31.10
2022-11-28T05:51:52.637Z,27.92
2022-11-28T05:54:20.576Z,28.60
2022-11-28T05:56:48.727Z,29.58
2022-11-28T05:59:16.545Z,29.08
2022-11-28T20:44:10.872Z,32.05
2022-11-28T20:46:55.310Z,33.97
2022-11-28T20:49:23.935Z,27.98
2022-11-28T20:55:13.850Z,38.97
2022-11-28T20:57:44.045Z,31.08
2022-11-28T21:00:14.837Z,28.70
2022-11-28T21:02:42.649Z,29.25
2022-11-28T21:05:16.720Z,25.08
2022-11-28T21:08:17.400Z,26.95
2022-11-28T21:11:50.242Z,26.63
2022-11-28T21:14:09.934Z,22.98
2022-11-28T21:16:37.888Z,33.35
2022-11-28T21:19:07.752Z,29.90
2022-11-28T21:21:37.066Z,31.80
2022-11-28T21:24:07.329Z,34.55
2022-11-28T21:26:40.911Z,49.30
2022-11-28T21:29:13.069Z,36.50
2022-11-28T21:31:42.741Z,25.63
2022-11-28T21:34:14.626Z,25.33
2022-11-28T21:36:43.629Z,33.15
2022-11-28T21:39:17.447Z,25.80
2022-11-28T21:41:45.808Z,30.25
2022-11-28T21:44:15.923Z,34.78
2022-11-28T21:56:22.983Z,30.10
2022-11-28T21:58:51.097Z,29.10
2022-11-28T22:01:21.781Z,20.50
2022-11-28T22:04:03.153Z,26.23
2022-11-28T22:06:32.392Z,33.60
2022-11-28T22:09:08.294Z,27.27
2022-11-28T22:11:38.601Z,21.98
2022-11-28T22:14:14.369Z,26.55
2022-11-28T22:16:42.677Z,33.58
2022-11-28T22:19:22.766Z,27.48
2022-11-28T22:22:20.090Z,23.55
2022-11-28T22:24:59.625Z,25.23
2022-11-28T22:27:38.420Z,26.23
2022-11-28T22:30:07.058Z,19.38
2022-11-28T22:32:35.062Z,23.98
2022-11-28T22:35:03.713Z,23.33
2022-11-28T22:37:31.903Z,25.27
2022-11-28T22:39:59.785Z,20.70
2022-11-28T22:42:28.075Z,21.50
2022-11-28T22:44:56.865Z,24.60
2022-11-28T22:47:41.645Z,20.90
2022-11-28T22:50:10.054Z,28.77
2022-11-28T22:52:38.212Z,22.98
2022-11-28T22:55:06.564Z,16.63
2022-11-28T22:57:34.381Z,19.65
2022-11-28T23:00:05.871Z,26.35
2022-11-28T23:02:33.913Z,27.50
2022-11-28T23:05:01.824Z,22.75
2022-11-28T23:07:29.733Z,26.25
2022-11-28T23:09:58.364Z,28.15
2022-11-28T23:12:26.392Z,25.60
2022-11-28T23:14:54.218Z,24.10
2022-11-28T23:17:22.075Z,23.55
2022-11-28T23:19:49.989Z,24.20
2022-11-28T23:22:19.151Z,22.02
2022-11-28T23:24:52.716Z,26.80
2022-11-28T23:27:21.347Z,24.45
2022-11-28T23:29:49.248Z,25.27
2022-11-28T23:32:20.236Z,23.67
2022-11-28T23:34:48.009Z,23.55
2022-11-28T23:37:15.944Z,26.38
2022-11-28T23:39:44.447Z,26.65
2022-11-28T23:42:14.877Z,24.20
2022-11-28T23:44:43.199Z,28.70
2022-11-28T23:47:11.092Z,24.88
2022-11-28T23:49:39.054Z,25.98
2022-11-28T23:52:06.894Z,25.70
2022-11-28T23:54:52.582Z,23.77
2022-11-28T23:57:20.618Z,23.60
2022-11-28T23:59:48.379Z,25.15
